createdAt,value
2017-02-14T00:00:38.418Z,80.13
2017-02-14T00:01:38.397Z,80.88
2017-02-14T00:02:38.370Z,80.51
2017-02-14T00:03:38.355Z,80.6
2017-02-14T00:04:38.308Z,80.41
2017-02-14T00:05:38.294Z,81.07
2017-02-14T00:06:38.249Z,80.79
2017-02-14T00:07:38.224Z,80.98
2017-02-14T00:08:38.224Z,80.79
2017-02-14T00:09:38.170Z,81.17
2017-02-14T00:10:38.198Z,80.88
2017-02-14T00:11:38.118Z,80.98
2017-02-14T00:12:38.088Z,80.32
2017-02-14T00:13:38.067Z,80.88
2017-02-14T00:14:38.031Z,80.88
2017-02-14T00:15:38.066Z,80.98
2017-02-14T00:16:37.594Z,80.69
2017-02-14T00:17:37.584Z,80.32
2017-02-14T00:18:37.933Z,80.04
2017-02-14T00:19:37.900Z,80.79
2017-02-14T00:20:37.866Z,80.88
2017-02-14T00:21:37.839Z,81.26
2017-02-14T00:22:37.824Z,80.88
2017-02-14T00:23:37.785Z,80.88
2017-02-14T00:24:37.761Z,81.26
2017-02-14T00:25:37.730Z,81.36
2017-02-14T00:26:37.708Z,81.36
2017-02-14T00:27:37.677Z,81.45
2017-02-14T00:28:37.674Z,81.36
2017-02-14T00:29:37.622Z,81.17
2017-02-14T00:30:37.592Z,81.26
2017-02-14T00:31:37.558Z,81.17
2017-02-14T00:32:37.151Z,80.79
2017-02-14T00:33:37.501Z,80.98
2017-02-14T00:34:37.478Z,81.45
2017-02-14T00:35:37.463Z,81.07
2017-02-14T00:36:37.636Z,81.55
2017-02-14T00:37:37.394Z,81.55
2017-02-14T00:38:36.986Z,81.64
2017-02-14T00:39:37.342Z,81.64
2017-02-14T00:40:37.317Z,82.4
2017-02-14T00:41:36.906Z,82.4
2017-02-14T00:42:37.256Z,81.74
2017-02-14T00:43:37.229Z,81.64
2017-02-14T00:44:37.258Z,81.17
2017-02-14T00:45:37.179Z,81.36
2017-02-14T00:46:37.151Z,80.98
2017-02-14T00:47:37.134Z,80.88
2017-02-14T00:48:37.090Z,81.17
2017-02-14T00:49:37.062Z,81.07
2017-02-14T00:50:37.043Z,81.36
2017-02-14T00:51:37.075Z,81.45
2017-02-14T00:52:36.985Z,81.26
2017-02-14T00:53:36.951Z,81.36
2017-02-14T00:54:36.548Z,81.55
2017-02-14T00:55:36.907Z,81.55
2017-02-14T00:56:36.535Z,81.55
2017-02-14T00:57:36.840Z,81.64
2017-02-14T00:58:36.819Z,81.45
2017-02-14T00:59:36.791Z,81.55
2017-02-14T01:00:36.765Z,81.17
2017-02-14T01:01:36.738Z,81.74
2017-02-14T01:02:36.327Z,81.17
2017-02-14T01:03:36.677Z,81.17
2017-02-14T01:04:36.649Z,81.45
2017-02-14T01:05:36.631Z,81.17
2017-02-14T01:06:36.212Z,80.98
2017-02-14T01:07:36.568Z,81.17
2017-02-14T01:08:36.556Z,80.98
2017-02-14T01:09:36.144Z,80.6
2017-02-14T01:10:36.487Z,80.6
2017-02-14T01:11:36.516Z,80.32
2017-02-14T01:12:36.055Z,80.69
2017-02-14T01:13:36.403Z,80.69
2017-02-14T01:14:36.380Z,80.88
2017-02-14T01:15:36.349Z,80.79
2017-02-14T01:16:35.993Z,80.6
2017-02-14T01:17:36.291Z,80.79
2017-02-14T01:18:35.879Z,80.32
2017-02-14T01:19:36.242Z,80.41
2017-02-14T01:20:36.209Z,80.41
2017-02-14T01:21:36.198Z,80.88
2017-02-14T01:22:36.161Z,80.41
2017-02-14T01:23:36.136Z,80.69
2017-02-14T01:24:36.117Z,80.51
2017-02-14T01:25:36.080Z,80.98
2017-02-14T01:26:36.043Z,80.79
2017-02-14T01:27:36.022Z,80.79
2017-02-14T01:28:36.031Z,81.07
2017-02-14T01:29:35.584Z,81.07
2017-02-14T01:30:35.944Z,80.79
2017-02-14T01:31:35.900Z,81.45
2017-02-14T01:32:35.933Z,81.45
2017-02-14T01:33:35.463Z,81.55
2017-02-14T01:34:35.823Z,81.74
2017-02-14T01:35:35.792Z,81.45
2017-02-14T01:36:35.764Z,80.98
2017-02-14T01:37:35.740Z,81.17
2017-02-14T01:38:35.707Z,81.17
2017-02-14T01:39:35.694Z,80.98
2017-02-14T01:40:35.662Z,81.26
2017-02-14T01:41:35.258Z,81.07
2017-02-14T01:42:35.653Z,80.98
2017-02-14T01:43:35.570Z,80.98
2017-02-14T01:44:35.558Z,81.55
2017-02-14T01:45:35.139Z,81.64
2017-02-14T01:46:35.108Z,81.55
2017-02-14T01:47:35.455Z,81.74
2017-02-14T01:48:35.434Z,81.74
2017-02-14T01:49:35.019Z,81.26
2017-02-14T01:50:35.001Z,81.74
2017-02-14T01:51:35.357Z,81.64
2017-02-14T01:52:35.379Z,81.55
2017-02-14T01:53:35.292Z,81.26
2017-02-14T01:54:35.267Z,81.64
2017-02-14T01:55:35.297Z,81.64
2017-02-14T01:56:35.217Z,81.64
2017-02-14T01:57:35.186Z,81.64
2017-02-14T01:58:35.172Z,81.45
2017-02-14T01:59:35.127Z,81.93
2017-02-14T02:00:35.103Z,81.83
2017-02-14T02:01:35.076Z,81.6
2017-02-14T02:02:35.047Z,82.02
2017-02-14T02:03:35.039Z,81.74
2017-02-14T02:04:34.663Z,81.83
2017-02-14T02:05:34.578Z,82.02
2017-02-14T02:06:34.934Z,82.5
2017-02-14T02:07:34.899Z,82.12
2017-02-14T02:08:34.876Z,82.12
2017-02-14T02:09:34.849Z,82.31
2017-02-14T02:10:34.821Z,82.21
2017-02-14T02:11:34.794Z,82.21
2017-02-14T02:12:34.762Z,82.02
2017-02-14T02:13:34.743Z,82.4
2017-02-14T02:14:34.734Z,82.21
2017-02-14T02:15:34.693Z,82.35
2017-02-14T02:16:34.656Z,82.31
2017-02-14T02:17:34.628Z,82.12
2017-02-14T02:18:34.604Z,82.26
2017-02-14T02:19:34.583Z,82.26
2017-02-14T02:20:34.155Z,82.64
2017-02-14T02:21:34.512Z,82.73
2017-02-14T02:22:34.490Z,82.54
2017-02-14T02:23:34.460Z,82.45
2017-02-14T02:24:34.439Z,82.92
2017-02-14T02:25:34.019Z,82.92
2017-02-14T02:26:34.389Z,82.83
2017-02-14T02:27:34.351Z,82.92
2017-02-14T02:28:34.327Z,82.59
2017-02-14T02:29:34.353Z,82.54
2017-02-14T02:30:34.263Z,82.83
2017-02-14T02:31:34.242Z,82.92
2017-02-14T02:32:33.876Z,82.83
2017-02-14T02:33:34.186Z,82.54
2017-02-14T02:34:34.151Z,82.92
2017-02-14T02:35:34.123Z,82.83
2017-02-14T02:36:33.711Z,82.92
2017-02-14T02:37:34.076Z,82.64
2017-02-14T02:38:33.661Z,82.64
2017-02-14T02:39:34.017Z,82.83
2017-02-14T02:40:33.987Z,82.54
2017-02-14T02:41:33.969Z,82.92
2017-02-14T02:42:33.929Z,82.45
2017-02-14T02:43:33.955Z,82.45
2017-02-14T02:44:33.880Z,82.45
2017-02-14T02:45:33.457Z,82.45
2017-02-14T02:46:33.836Z,82.54
2017-02-14T02:47:33.793Z,82.64
2017-02-14T02:48:33.768Z,82.83
2017-02-14T02:49:33.742Z,82.07
2017-02-14T02:50:33.957Z,82.26
2017-02-14T02:51:33.679Z,82.26
2017-02-14T02:52:33.659Z,82.5
2017-02-14T02:53:33.259Z,82.02
2017-02-14T02:54:33.259Z,82.12
2017-02-14T02:55:33.567Z,81.45
2017-02-14T02:56:33.542Z,81.07
2017-02-14T02:57:33.515Z,81.17
2017-02-14T02:58:33.498Z,80.51
2017-02-14T02:59:33.452Z,80.13
2017-02-14T03:00:33.427Z,80.32
2017-02-14T03:01:33.401Z,79.75
2017-02-14T03:02:33.370Z,79.56
2017-02-14T03:03:33.345Z,78.99
2017-02-14T03:04:33.316Z,79.47
2017-02-14T03:05:32.913Z,78.8
2017-02-14T03:06:33.273Z,78.71
2017-02-14T03:07:33.228Z,78.52
2017-02-14T03:08:33.219Z,78.14
2017-02-14T03:09:33.185Z,78.52
2017-02-14T03:10:33.196Z,77.95
2017-02-14T03:11:32.741Z,78.05
2017-02-14T03:12:33.092Z,77.29
2017-02-14T03:13:33.115Z,77.67
2017-02-14T03:14:32.653Z,77.76
2017-02-14T03:15:33.011Z,77.2
2017-02-14T03:16:32.995Z,77.48
2017-02-14T03:17:32.960Z,77.2
2017-02-14T03:18:32.937Z,77.48
2017-02-14T03:19:32.897Z,77.29
2017-02-14T03:20:32.875Z,76.91
2017-02-14T03:21:32.859Z,76.91
2017-02-14T03:22:32.814Z,77.1
2017-02-14T03:23:32.788Z,77.29
2017-02-14T03:24:32.754Z,77.2
2017-02-14T03:25:32.733Z,77.39
2017-02-14T03:26:32.707Z,77.29
2017-02-14T03:27:32.709Z,77.2
2017-02-14T03:28:32.654Z,77.39
2017-02-14T03:29:32.245Z,77.48
2017-02-14T03:30:32.608Z,77.48
2017-02-14T03:31:32.570Z,77.48
2017-02-14T03:32:32.601Z,77.2
2017-02-14T03:33:32.121Z,77.01
2017-02-14T03:34:32.503Z,76.91
2017-02-14T03:35:32.449Z,77.01
2017-02-14T03:36:32.424Z,77.67
2017-02-14T03:37:32.406Z,77.39
2017-02-14T03:38:32.422Z,77.2
2017-02-14T03:39:32.345Z,77.2
2017-02-14T03:40:32.323Z,77.48
2017-02-14T03:41:31.908Z,77.39
2017-02-14T03:42:32.263Z,77.2
2017-02-14T03:43:32.239Z,77.29
2017-02-14T03:44:32.203Z,77.1
2017-02-14T03:45:32.180Z,77.58
2017-02-14T03:46:32.148Z,77.39
2017-02-14T03:47:32.143Z,77.29
2017-02-14T03:48:32.091Z,77.29
2017-02-14T03:49:32.069Z,77.2
2017-02-14T03:50:32.059Z,77.39
2017-02-14T03:51:32.012Z,77.29
2017-02-14T03:52:31.995Z,77.67
2017-02-14T03:53:31.989Z,77.58
2017-02-14T03:54:31.980Z,77.58
2017-02-14T03:55:31.900Z,77.58
2017-02-14T03:56:31.874Z,76.91
2017-02-14T03:57:31.851Z,77.76
2017-02-14T03:58:31.445Z,77.86
2017-02-14T03:59:31.795Z,77.76
2017-02-14T04:00:31.767Z,77.29
2017-02-14T04:01:31.757Z,77.2
2017-02-14T04:02:31.709Z,77.29
2017-02-14T04:03:31.685Z,77.39
2017-02-14T04:04:31.674Z,76.91
2017-02-14T04:05:31.638Z,76.82
2017-02-14T04:06:31.598Z,76.91
2017-02-14T04:07:31.589Z,76.63
2017-02-14T04:08:31.159Z,76.63
2017-02-14T04:09:31.148Z,76.82
2017-02-14T04:10:31.485Z,76.72
2017-02-14T04:11:31.496Z,76.91
2017-02-14T04:12:31.055Z,76.91
2017-02-14T04:13:31.405Z,76.91
2017-02-14T04:14:30.993Z,76.82
2017-02-14T04:15:31.346Z,76.91
2017-02-14T04:16:31.332Z,76.82
2017-02-14T04:17:30.921Z,76.91
2017-02-14T04:18:31.265Z,76.72
2017-02-14T04:19:31.241Z,76.72
2017-02-14T04:20:31.217Z,76.44
2017-02-14T04:21:31.190Z,76.44
2017-02-14T04:22:30.772Z,76.44
2017-02-14T04:23:31.130Z,76.44
2017-02-14T04:24:31.099Z,76.34
2017-02-14T04:25:30.691Z,76.25
2017-02-14T04:26:31.042Z,76.34
2017-02-14T04:27:30.646Z,76.44
2017-02-14T04:28:31.000Z,76.53
2017-02-14T04:29:30.963Z,76.34
2017-02-14T04:30:30.953Z,76.34
2017-02-14T04:31:30.578Z,76.34
2017-02-14T04:32:30.878Z,76.44
2017-02-14T04:33:30.857Z,76.91
2017-02-14T04:34:30.825Z,76.82
2017-02-14T04:35:30.804Z,76.63
2017-02-14T04:36:30.397Z,76.72
2017-02-14T04:37:30.750Z,76.63
2017-02-14T04:38:30.712Z,77.01
2017-02-14T04:39:30.697Z,76.72
2017-02-14T04:40:30.268Z,77.01
2017-02-14T04:41:30.632Z,76.82
2017-02-14T04:42:30.226Z,76.91
2017-02-14T04:43:30.581Z,76.72
2017-02-14T04:44:30.541Z,76.82
2017-02-14T04:45:30.523Z,76.63
2017-02-14T04:46:30.494Z,76.91
2017-02-14T04:47:30.077Z,76.63
2017-02-14T04:48:30.446Z,76.63
2017-02-14T04:49:30.417Z,76.82
2017-02-14T04:50:30.429Z,76.91
2017-02-14T04:51:30.355Z,77.1
2017-02-14T04:52:30.336Z,77.01
2017-02-14T04:53:30.295Z,76.82
2017-02-14T04:54:30.271Z,76.91
2017-02-14T04:55:30.245Z,76.91
2017-02-14T04:56:30.220Z,76.91
2017-02-14T04:57:30.186Z,77.01
2017-02-14T04:58:30.167Z,76.63
2017-02-14T04:59:30.181Z,77.1
2017-02-14T05:00:29.769Z,76.91
2017-02-14T05:01:30.075Z,76.82
2017-02-14T05:02:30.070Z,76.91
2017-02-14T05:03:30.023Z,76.82
2017-02-14T05:04:29.992Z,76.91
2017-02-14T05:05:29.579Z,76.63
2017-02-14T05:06:29.935Z,76.44
2017-02-14T05:07:29.914Z,76.44
2017-02-14T05:08:29.876Z,76.53
2017-02-14T05:09:29.465Z,76.82
2017-02-14T05:10:29.823Z,76.91
2017-02-14T05:11:29.801Z,76.34
2017-02-14T05:12:29.773Z,76.44
2017-02-14T05:13:29.790Z,76.34
2017-02-14T05:14:29.711Z,77.1
2017-02-14T05:15:29.301Z,76.91
2017-02-14T05:16:29.657Z,76.91
2017-02-14T05:17:29.628Z,76.82
2017-02-14T05:18:29.614Z,76.91
2017-02-14T05:19:29.574Z,77.67
2017-02-14T05:20:29.551Z,77.39
2017-02-14T05:21:29.517Z,77.58
2017-02-14T05:22:29.491Z,77.48
2017-02-14T05:23:29.509Z,77.39
2017-02-14T05:24:29.052Z,77.48
2017-02-14T05:25:29.024Z,77.29
2017-02-14T05:26:29.387Z,77.44
2017-02-14T05:27:29.358Z,77.48
2017-02-14T05:28:29.318Z,77.58
2017-02-14T05:29:29.305Z,77.1
2017-02-14T05:30:29.268Z,77.29
2017-02-14T05:31:29.237Z,77.48
2017-02-14T05:32:29.204Z,77.48
2017-02-14T05:33:28.801Z,77.39
2017-02-14T05:34:29.158Z,77.67
2017-02-14T05:35:29.154Z,77.48
2017-02-14T05:36:29.093Z,77.58
2017-02-14T05:37:29.125Z,77.39
2017-02-14T05:38:28.655Z,77.58
2017-02-14T05:39:29.013Z,77.39
2017-02-14T05:40:29.035Z,77.39
2017-02-14T05:41:29.009Z,77.44
2017-02-14T05:42:28.928Z,77.39
2017-02-14T05:43:28.909Z,77.48
2017-02-14T05:44:28.882Z,77.29
2017-02-14T05:45:28.843Z,77.39
2017-02-14T05:46:28.811Z,77.39
2017-02-14T05:47:28.787Z,77.2
2017-02-14T05:48:28.774Z,77.1
2017-02-14T05:49:28.731Z,77.39
2017-02-14T05:50:28.707Z,77.1
2017-02-14T05:51:28.678Z,77.1
2017-02-14T05:52:28.645Z,77.39
2017-02-14T05:53:28.611Z,77.86
2017-02-14T05:54:28.591Z,78.1
2017-02-14T05:55:28.562Z,77.91
2017-02-14T05:56:28.598Z,77.53
2017-02-14T05:57:28.524Z,77.72
2017-02-14T05:58:28.540Z,78.01
2017-02-14T05:59:28.448Z,77.63
2017-02-14T06:00:28.451Z,77.72
2017-02-14T06:01:28.400Z,78.01
2017-02-14T06:02:28.368Z,78.39
2017-02-14T06:03:28.346Z,78.2
2017-02-14T06:04:28.311Z,78.1
2017-02-14T06:05:28.290Z,78.1
2017-02-14T06:06:28.251Z,78.48
2017-02-14T06:07:28.223Z,78.39
2017-02-14T06:08:28.195Z,78.95
2017-02-14T06:09:28.166Z,78.67
2017-02-14T06:10:28.140Z,78.48
2017-02-14T06:11:28.159Z,78.86
2017-02-14T06:12:28.080Z,79.52
2017-02-14T06:13:28.092Z,79.24
2017-02-14T06:14:27.669Z,79.14
2017-02-14T06:15:28.017Z,78.95
2017-02-14T06:16:28.018Z,78.86
2017-02-14T06:17:27.950Z,79.52
2017-02-14T06:18:27.920Z,79.24
2017-02-14T06:19:27.889Z,79.52
2017-02-14T06:20:27.854Z,79.33
2017-02-14T06:21:27.835Z,79.52
2017-02-14T06:22:27.810Z,79.99
2017-02-14T06:23:27.773Z,79.9
2017-02-14T06:24:27.748Z,79.71
2017-02-14T06:25:27.718Z,79.8
2017-02-14T06:26:27.708Z,79.71
2017-02-14T06:27:27.661Z,80.37
2017-02-14T06:28:27.680Z,80.37
2017-02-14T06:29:27.602Z,80.46
2017-02-14T06:30:27.572Z,80.37
2017-02-14T06:31:27.556Z,80.27
2017-02-14T06:32:27.525Z,80.18
2017-02-14T06:33:27.493Z,80.18
2017-02-14T06:34:27.474Z,80.37
2017-02-14T06:35:27.437Z,80.27
2017-02-14T06:36:27.407Z,80.18
2017-02-14T06:37:27.375Z,80.08
2017-02-14T06:38:27.348Z,80.18
2017-02-14T06:39:27.324Z,80.37
2017-02-14T06:40:27.340Z,80.27
2017-02-14T06:41:27.260Z,80.18
2017-02-14T06:42:27.236Z,80.37
2017-02-14T06:43:27.203Z,80.37
2017-02-14T06:44:27.241Z,80.37
2017-02-14T06:45:27.148Z,80.46
2017-02-14T06:46:27.119Z,80.37
2017-02-14T06:47:27.092Z,80.08
2017-02-14T06:48:27.115Z,79.43
2017-02-14T06:49:26.665Z,79.9
2017-02-14T06:50:27.011Z,79.52
2017-02-14T06:51:26.979Z,79.99
2017-02-14T06:52:26.963Z,79.9
2017-02-14T06:53:26.922Z,79.52
2017-02-14T06:54:26.896Z,79.8
2017-02-14T06:55:26.868Z,79.52
2017-02-14T06:56:26.835Z,79.71
2017-02-14T06:57:26.809Z,79.52
2017-02-14T06:58:26.778Z,79.9
2017-02-14T06:59:26.755Z,79.61
2017-02-14T07:00:26.734Z,79.71
2017-02-14T07:01:26.707Z,79.8
2017-02-14T07:02:26.664Z,79.71
2017-02-14T07:03:26.642Z,79.8
2017-02-14T07:04:26.639Z,79.33
2017-02-14T07:05:26.201Z,79.52
2017-02-14T07:06:26.554Z,79.52
2017-02-14T07:07:26.523Z,79.33
2017-02-14T07:08:26.507Z,79.43
2017-02-14T07:09:26.466Z,78.95
2017-02-14T07:10:26.446Z,79.24
2017-02-14T07:11:26.059Z,78.76
2017-02-14T07:12:26.384Z,78.95
2017-02-14T07:13:26.358Z,79.14
2017-02-14T07:14:26.318Z,78.86
2017-02-14T07:15:26.296Z,78.86
2017-02-14T07:16:25.881Z,79.33
2017-02-14T07:17:26.240Z,79.52
2017-02-14T07:18:26.217Z,78.58
2017-02-14T07:19:26.237Z,78.58
2017-02-14T07:20:26.156Z,78.58
2017-02-14T07:21:26.134Z,78.58
2017-02-14T07:22:26.108Z,78.39
2017-02-14T07:23:26.071Z,78.14
2017-02-14T07:24:26.046Z,77.58
2017-02-14T07:25:26.016Z,77.2
2017-02-14T07:26:26.038Z,77.39
2017-02-14T07:27:25.959Z,77.39
2017-02-14T07:28:25.931Z,76.82
2017-02-14T07:29:25.910Z,75.96
2017-02-14T07:30:25.875Z,75.24
2017-02-14T07:31:25.859Z,74.3
2017-02-14T07:32:26.345Z,72.53
2017-02-14T07:33:25.802Z,71.59
2017-02-14T07:34:25.782Z,70.26
2017-02-14T07:35:25.745Z,69.17
2017-02-14T07:36:25.334Z,67.74
2017-02-14T07:37:25.692Z,67.65
2017-02-14T07:38:25.665Z,67.36
2017-02-14T07:39:25.665Z,65.97
2017-02-14T07:40:25.229Z,65.12
2017-02-14T07:41:25.597Z,64.17
2017-02-14T07:42:25.578Z,64.17
2017-02-14T07:43:25.563Z,62.69
2017-02-14T07:44:25.525Z,62.21
2017-02-14T07:45:25.497Z,61.74
2017-02-14T07:46:25.470Z,61.74
2017-02-14T07:47:25.455Z,61.3
2017-02-14T07:48:25.421Z,60.25
2017-02-14T07:49:25.400Z,59.4
2017-02-14T07:50:25.375Z,57.81
2017-02-14T07:51:25.358Z,57.15
2017-02-14T07:52:25.332Z,57.15
2017-02-14T07:53:24.928Z,56.87
2017-02-14T07:54:24.893Z,56.49
2017-02-14T07:55:25.271Z,55.54
2017-02-14T07:56:25.231Z,55.37
2017-02-14T07:57:25.246Z,54.9
2017-02-14T07:58:25.192Z,54.8
2017-02-14T07:59:24.776Z,54.43
2017-02-14T08:00:24.758Z,52.84
2017-02-14T08:01:25.135Z,51.89
2017-02-14T08:02:25.098Z,52.26
2017-02-14T08:03:25.083Z,52.17
2017-02-14T08:04:25.052Z,51.51
2017-02-14T08:05:25.030Z,51.12
2017-02-14T08:06:24.652Z,51.22
2017-02-14T08:07:24.985Z,50.46
2017-02-14T08:08:24.982Z,50.84
2017-02-14T08:09:24.575Z,50.01
2017-02-14T08:10:24.922Z,49.44
2017-02-14T08:11:24.899Z,49.35
2017-02-14T08:12:24.879Z,48.77
2017-02-14T08:13:24.856Z,48.96
2017-02-14T08:14:24.884Z,48.51
2017-02-14T08:15:24.435Z,47.47
2017-02-14T08:16:24.804Z,46.8
2017-02-14T08:17:24.769Z,47.18
2017-02-14T08:18:24.751Z,46.7
2017-02-14T08:19:24.747Z,46.61
2017-02-14T08:20:24.709Z,46.33
2017-02-14T08:21:24.688Z,46.42
2017-02-14T08:22:24.669Z,46.51
2017-02-14T08:23:24.647Z,46.89
2017-02-14T08:24:24.245Z,47.09
2017-02-14T08:25:24.604Z,46.7
2017-02-14T08:26:24.582Z,46.42
2017-02-14T08:27:24.567Z,45.95
2017-02-14T08:28:24.536Z,46.14
2017-02-14T08:29:24.523Z,46.33
2017-02-14T08:30:24.492Z,46.99
2017-02-14T08:31:24.482Z,45.66
2017-02-14T08:32:24.450Z,45.56
2017-02-14T08:33:24.425Z,45.3
2017-02-14T08:34:24.406Z,45.3
2017-02-14T08:35:24.398Z,44.9
2017-02-14T08:36:24.370Z,45.28
2017-02-14T08:37:24.369Z,45.18
2017-02-14T08:38:23.947Z,44.8
2017-02-14T08:39:24.304Z,45.28
2017-02-14T08:40:23.900Z,45
2017-02-14T08:41:24.357Z,44.9
2017-02-14T08:42:24.261Z,45.18
2017-02-14T08:43:24.230Z,44.9
2017-02-14T08:44:24.116Z,44.9
2017-02-14T08:45:24.177Z,45.47
2017-02-14T08:46:24.157Z,45.35
2017-02-14T08:47:24.146Z,45.83
2017-02-14T08:48:24.146Z,45.09
2017-02-14T08:49:24.103Z,45.18
2017-02-14T08:50:24.095Z,45.09
2017-02-14T08:51:24.116Z,45.37
2017-02-14T08:52:24.065Z,45.28
2017-02-14T08:53:24.061Z,45.09
2017-02-14T08:54:23.987Z,45.35
2017-02-14T08:55:23.980Z,45.09
2017-02-14T08:56:23.961Z,45.09
2017-02-14T08:57:23.931Z,45.09
2017-02-14T08:58:23.992Z,45.28
2017-02-14T08:59:23.888Z,45.18
2017-02-14T09:00:23.491Z,44.9
2017-02-14T09:01:23.843Z,45.18
2017-02-14T09:02:23.826Z,45.85
2017-02-14T09:03:23.811Z,45.73
2017-02-14T09:04:23.787Z,46.94
2017-02-14T09:05:23.389Z,47.89
2017-02-14T09:06:23.399Z,48.72
2017-02-14T09:07:23.724Z,49.68
2017-02-14T09:08:23.711Z,50.43
2017-02-14T09:09:23.679Z,51.36
2017-02-14T09:10:23.668Z,50.89
2017-02-14T09:11:23.251Z,52.31
2017-02-14T09:12:23.624Z,52
2017-02-14T09:13:23.198Z,52.76
2017-02-14T09:14:23.571Z,53.7
2017-02-14T09:15:23.544Z,53.7
2017-02-14T09:16:23.519Z,54.18
2017-02-14T09:17:23.123Z,54.37
2017-02-14T09:18:23.480Z,54.75
2017-02-14T09:19:23.467Z,54.56
2017-02-14T09:20:23.429Z,55.13
2017-02-14T09:21:23.410Z,54.75
2017-02-14T09:22:23.387Z,54.85
2017-02-14T09:23:23.360Z,54.75
2017-02-14T09:24:23.340Z,55.04
2017-02-14T09:25:22.929Z,54.46
2017-02-14T09:26:22.914Z,54.18
2017-02-14T09:27:23.276Z,54.46
2017-02-14T09:28:23.287Z,54.46
2017-02-14T09:29:22.842Z,54.75
2017-02-14T09:30:22.811Z,54.37
2017-02-14T09:31:23.173Z,54.56
2017-02-14T09:32:23.157Z,54.85
2017-02-14T09:33:22.756Z,54.94
2017-02-14T09:34:23.105Z,54.75
2017-02-14T09:35:23.077Z,54.66
2017-02-14T09:36:23.051Z,54.94
2017-02-14T09:37:23.034Z,54.94
2017-02-14T09:38:23.004Z,54.94
2017-02-14T09:39:22.982Z,54.37
2017-02-14T09:40:23.011Z,54.27
2017-02-14T09:41:22.934Z,53.54
2017-02-14T09:42:22.913Z,52.69
2017-02-14T09:43:22.889Z,52.78
2017-02-14T09:44:22.871Z,52.78
2017-02-14T09:45:22.845Z,53.8
2017-02-14T09:46:22.815Z,53.61
2017-02-14T09:47:22.807Z,53.61
2017-02-14T09:48:22.776Z,53.33
2017-02-14T09:49:23.053Z,53.52
2017-02-14T09:50:22.726Z,53.89
2017-02-14T09:51:22.709Z,54.08
2017-02-14T09:52:22.680Z,53.8
2017-02-14T09:53:22.649Z,53.89
2017-02-14T09:54:22.626Z,54.94
2017-02-14T09:55:22.600Z,54.37
2017-02-14T09:56:22.211Z,54.46
2017-02-14T09:57:22.172Z,54.46
2017-02-14T09:58:22.158Z,54.46
2017-02-14T09:59:22.502Z,54.56
2017-02-14T10:00:22.112Z,54.56
2017-02-14T10:01:22.459Z,54.66
2017-02-14T10:02:22.429Z,54.75
2017-02-14T10:03:22.410Z,54.18
2017-02-14T10:04:22.006Z,54.08
2017-02-14T10:05:22.361Z,54.27
2017-02-14T10:06:22.332Z,54.56
2017-02-14T10:07:22.318Z,54.37
2017-02-14T10:08:21.911Z,54.08
2017-02-14T10:09:22.276Z,54.08
2017-02-14T10:10:22.238Z,54.85
2017-02-14T10:11:22.270Z,54.37
2017-02-14T10:12:22.195Z,54.56
2017-02-14T10:13:21.797Z,54.56
2017-02-14T10:14:22.192Z,53.89
2017-02-14T10:15:21.736Z,54.08
2017-02-14T10:16:22.198Z,54.56
2017-02-14T10:17:22.067Z,54.75
2017-02-14T10:18:22.262Z,54.85
2017-02-14T10:19:21.633Z,54.18
2017-02-14T10:20:22.000Z,54.66
2017-02-14T10:21:21.974Z,54.94
2017-02-14T10:22:21.951Z,54.18
2017-02-14T10:23:21.932Z,54.27
2017-02-14T10:24:21.919Z,54.02
2017-02-14T10:25:21.879Z,53.99
2017-02-14T10:26:21.854Z,53.89
2017-02-14T10:27:21.445Z,54.46
2017-02-14T10:28:21.806Z,54.85
2017-02-14T10:29:21.795Z,54.37
2017-02-14T10:30:21.759Z,54.58
2017-02-14T10:31:21.761Z,54.78
2017-02-14T10:32:21.727Z,54.21
2017-02-14T10:33:21.739Z,54.21
2017-02-14T10:34:21.681Z,54.21
2017-02-14T10:35:21.639Z,54.58
2017-02-14T10:36:21.618Z,54.87
2017-02-14T10:37:21.603Z,54.3
2017-02-14T10:38:21.580Z,53.92
2017-02-14T10:39:21.548Z,53.73
2017-02-14T10:40:21.142Z,54.02
2017-02-14T10:41:21.114Z,54.68
2017-02-14T10:42:21.468Z,54.11
2017-02-14T10:43:21.444Z,54.11
2017-02-14T10:44:21.479Z,53.64
2017-02-14T10:45:21.397Z,53.73
2017-02-14T10:46:21.373Z,53.73
2017-02-14T10:47:21.357Z,53.83
2017-02-14T10:48:21.333Z,53.73
2017-02-14T10:49:21.303Z,53.73
2017-02-14T10:50:21.284Z,53.64
2017-02-14T10:51:20.924Z,53.92
2017-02-14T10:52:21.227Z,53.83
2017-02-14T10:53:21.206Z,53.73
2017-02-14T10:54:21.181Z,53.54
2017-02-14T10:55:20.774Z,53.64
2017-02-14T10:56:21.139Z,53.54
2017-02-14T10:57:21.110Z,53.64
2017-02-14T10:58:20.707Z,53.35
2017-02-14T10:59:21.063Z,53.54
2017-02-14T11:00:21.035Z,53.92
2017-02-14T11:01:21.078Z,53.73
2017-02-14T11:02:20.991Z,54.02
2017-02-14T11:03:21.021Z,54.02
2017-02-14T11:04:20.944Z,54.21
2017-02-14T11:05:20.919Z,53.92
2017-02-14T11:06:20.894Z,54.02
2017-02-14T11:07:20.874Z,53.45
2017-02-14T11:08:20.849Z,53.64
2017-02-14T11:09:20.871Z,53.64
2017-02-14T11:10:20.805Z,53.45
2017-02-14T11:11:20.768Z,53.64
2017-02-14T11:12:20.747Z,53.73
2017-02-14T11:13:21.023Z,53.54
2017-02-14T11:14:20.696Z,53.76
2017-02-14T11:15:20.698Z,53.28
2017-02-14T11:16:20.658Z,53.28
2017-02-14T11:17:20.630Z,52.81
2017-02-14T11:18:20.604Z,53.19
2017-02-14T11:19:20.633Z,53.09
2017-02-14T11:20:20.613Z,52.81
2017-02-14T11:21:20.529Z,53.19
2017-02-14T11:22:20.511Z,52.72
2017-02-14T11:23:20.488Z,53.09
2017-02-14T11:24:20.460Z,53
2017-02-14T11:25:20.453Z,52.91
2017-02-14T11:26:20.410Z,52.62
2017-02-14T11:27:20.394Z,52.81
2017-02-14T11:28:19.995Z,52.43
2017-02-14T11:29:20.390Z,52.91
2017-02-14T11:30:20.423Z,52.91
2017-02-14T11:31:20.310Z,52.33
2017-02-14T11:32:20.282Z,52.43
2017-02-14T11:33:20.304Z,52.24
2017-02-14T11:34:19.841Z,52.33
2017-02-14T11:35:20.211Z,52.14
2017-02-14T11:36:20.176Z,51.95
2017-02-14T11:37:20.162Z,51.86
2017-02-14T11:38:20.132Z,51.86
2017-02-14T11:39:20.116Z,51.95
2017-02-14T11:40:20.091Z,51.86
2017-02-14T11:41:20.061Z,51.95
2017-02-14T11:42:20.032Z,52.26
2017-02-14T11:43:20.023Z,51.41
2017-02-14T11:44:19.987Z,51.51
2017-02-14T11:45:19.962Z,51.6
2017-02-14T11:46:19.941Z,51.57
2017-02-14T11:47:19.920Z,51.7
2017-02-14T11:48:19.514Z,51.7
2017-02-14T11:49:19.870Z,51.22
2017-02-14T11:50:19.844Z,51.03
2017-02-14T11:51:19.821Z,51.03
2017-02-14T11:52:19.412Z,51.03
2017-02-14T11:53:19.773Z,51.03
2017-02-14T11:54:19.758Z,51.31
2017-02-14T11:55:19.394Z,51.22
2017-02-14T11:56:19.807Z,51.22
2017-02-14T11:57:19.730Z,51.31
2017-02-14T11:58:19.659Z,50.56
2017-02-14T11:59:19.637Z,50.56
2017-02-14T12:00:19.222Z,50.56
2017-02-14T12:01:19.585Z,50.74
2017-02-14T12:02:19.563Z,50.27
2017-02-14T12:03:19.159Z,50.27
2017-02-14T12:04:19.518Z,49.7
2017-02-14T12:05:19.501Z,50.27
2017-02-14T12:06:19.474Z,49.7
2017-02-14T12:07:19.064Z,49.7
2017-02-14T12:08:19.422Z,49.7
2017-02-14T12:09:19.394Z,49.6
2017-02-14T12:10:19.386Z,50.18
2017-02-14T12:11:19.352Z,50.18
2017-02-14T12:12:19.335Z,49.98
2017-02-14T12:13:19.309Z,49.98
2017-02-14T12:14:19.283Z,49.73
2017-02-14T12:15:19.310Z,49.51
2017-02-14T12:16:19.305Z,49.73
2017-02-14T12:17:19.220Z,50.01
2017-02-14T12:18:19.202Z,49.82
2017-02-14T12:19:19.171Z,49.82
2017-02-14T12:20:19.142Z,49.44
2017-02-14T12:21:19.119Z,49.25
2017-02-14T12:22:19.103Z,49.35
2017-02-14T12:23:19.141Z,49.44
2017-02-14T12:24:19.049Z,49.82
2017-02-14T12:25:19.030Z,49.63
2017-02-14T12:26:19.005Z,49.44
2017-02-14T12:27:19.037Z,49.44
2017-02-14T12:28:18.960Z,48.87
2017-02-14T12:29:18.955Z,49.15
2017-02-14T12:30:18.911Z,49.15
2017-02-14T12:31:18.883Z,49.06
2017-02-14T12:32:18.869Z,48.58
2017-02-14T12:33:18.460Z,48.77
2017-02-14T12:34:18.830Z,48.39
2017-02-14T12:35:18.459Z,48.39
2017-02-14T12:36:18.773Z,48.87
2017-02-14T12:37:18.750Z,48.87
2017-02-14T12:38:18.732Z,49.06
2017-02-14T12:39:18.702Z,48.96
2017-02-14T12:40:18.677Z,48.77
2017-02-14T12:41:18.276Z,48.96
2017-02-14T12:42:18.697Z,48.96
2017-02-14T12:43:18.241Z,48.87
2017-02-14T12:44:18.592Z,49.06
2017-02-14T12:45:18.581Z,49.44
2017-02-14T12:46:18.543Z,49.25
2017-02-14T12:47:18.519Z,48.87
2017-02-14T12:48:18.496Z,48.39
2017-02-14T12:49:18.472Z,48.21
2017-02-14T12:50:18.448Z,48.01
2017-02-14T12:51:18.420Z,48.03
2017-02-14T12:52:18.398Z,48.32
2017-02-14T12:53:18.377Z,48.11
2017-02-14T12:54:18.390Z,47.85
2017-02-14T12:55:17.962Z,48.03